sensor_id;sensor_type;location;lat;lon;timestamp;P1;durP1;ratioP1;P2;durP2;ratioP2
9657;SDS011;4867;48.112;11.622;2023-02-23T00:01:55;15.67;;;13.97;;
9657;SDS011;4867;48.112;11.622;2023-02-23T00:04:23;15.20;;;13.47;;
9657;SDS011;4867;48.112;11.622;2023-02-23T00:06:51;16.70;;;14.33;;
9657;SDS011;4867;48.112;11.622;2023-02-23T00:09:19;16.33;;;14.60;;
9657;SDS011;4867;48.112;11.622;2023-02-23T00:11:53;15.67;;;13.80;;
9657;SDS011;4867;48.112;11.622;2023-02-23T00:14:26;15.77;;;13.93;;
9657;SDS011;4867;48.112;11.622;2023-02-23T00:16:54;16.07;;;14.37;;
9657;SDS011;4867;48.112;11.622;2023-02-23T00:19:22;18.63;;;14.17;;
9657;SDS011;4867;48.112;11.622;2023-02-23T00:21:50;16.57;;;14.53;;
9657;SDS011;4867;48.112;11.622;2023-02-23T00:24:19;16.93;;;15.13;;
9657;SDS011;4867;48.112;11.622;2023-02-23T00:26:47;16.70;;;14.73;;
9657;SDS011;4867;48.112;11.622;2023-02-23T00:29:17;17.43;;;15.00;;
9657;SDS011;4867;48.112;11.622;2023-02-23T00:31:47;18.93;;;14.93;;
9657;SDS011;4867;48.112;11.622;2023-02-23T00:34:17;17.50;;;14.67;;
9657;SDS011;4867;48.112;11.622;2023-02-23T00:36:50;16.03;;;13.90;;
9657;SDS011;4867;48.112;11.622;2023-02-23T00:39:20;17.77;;;14.80;;
9657;SDS011;4867;48.112;11.622;2023-02-23T00:41:54;19.67;;;15.80;;
9657;SDS011;4867;48.112;11.622;2023-02-23T00:44:23;17.97;;;15.27;;
9657;SDS011;4867;48.112;11.622;2023-02-23T00:46:50;17.87;;;15.47;;
9657;SDS011;4867;48.112;11.622;2023-02-23T00:49:19;17.37;;;15.03;;
9657;SDS011;4867;48.112;11.622;2023-02-23T00:51:47;18.47;;;15.53;;
9657;SDS011;4867;48.112;11.622;2023-02-23T00:54:15;17.70;;;15.83;;
9657;SDS011;4867;48.112;11.622;2023-02-23T00:56:44;17.83;;;15.43;;
9657;SDS011;4867;48.112;11.622;2023-02-23T00:59:12;17.80;;;14.83;;
9657;SDS011;4867;48.112;11.622;2023-02-23T01:01:40;17.87;;;15.40;;
9657;SDS011;4867;48.112;11.622;2023-02-23T01:04:08;19.27;;;15.73;;
9657;SDS011;4867;48.112;11.622;2023-02-23T01:06:36;18.70;;;14.87;;
9657;SDS011;4867;48.112;11.622;2023-02-23T01:09:05;18.23;;;16.03;;
9657;SDS011;4867;48.112;11.622;2023-02-23T01:11:34;19.77;;;15.87;;
9657;SDS011;4867;48.112;11.622;2023-02-23T01:14:02;21.67;;;16.23;;
9657;SDS011;4867;48.112;11.622;2023-02-23T01:16:30;18.23;;;15.53;;
9657;SDS011;4867;48.112;11.622;2023-02-23T01:19:00;17.47;;;15.63;;
9657;SDS011;4867;48.112;11.622;2023-02-23T01:21:31;18.50;;;16.60;;
9657;SDS011;4867;48.112;11.622;2023-02-23T01:24:00;17.90;;;16.03;;
9657;SDS011;4867;48.112;11.622;2023-02-23T01:26:29;19.97;;;16.30;;
9657;SDS011;4867;48.112;11.622;2023-02-23T01:29:10;19.57;;;16.43;;
9657;SDS011;4867;48.112;11.622;2023-02-23T01:31:40;22.33;;;17.17;;
9657;SDS011;4867;48.112;11.622;2023-02-23T01:34:10;19.20;;;15.80;;
9657;SDS011;4867;48.112;11.622;2023-02-23T01:36:39;20.30;;;16.27;;
9657;SDS011;4867;48.112;11.622;2023-02-23T01:39:12;20.70;;;16.83;;
9657;SDS011;4867;48.112;11.622;2023-02-23T01:41:41;21.63;;;17.87;;
9657;SDS011;4867;48.112;11.622;2023-02-23T01:46:40;20.07;;;17.97;;
9657;SDS011;4867;48.112;11.622;2023-02-23T01:49:17;20.33;;;18.00;;
9657;SDS011;4867;48.112;11.622;2023-02-23T01:51:55;19.23;;;17.20;;
9657;SDS011;4867;48.112;11.622;2023-02-23T01:54:31;19.67;;;17.57;;
9657;SDS011;4867;48.112;11.622;2023-02-23T01:57:02;20.40;;;18.20;;
9657;SDS011;4867;48.112;11.622;2023-02-23T01:59:38;23.57;;;17.80;;
9657;SDS011;4867;48.112;11.622;2023-02-23T02:02:08;21.27;;;18.27;;
9657;SDS011;4867;48.112;11.622;2023-02-23T02:04:37;20.07;;;17.97;;
9657;SDS011;4867;48.112;11.622;2023-02-23T02:07:14;21.90;;;17.97;;
9657;SDS011;4867;48.112;11.622;2023-02-23T02:09:47;19.50;;;17.23;;
9657;SDS011;4867;48.112;11.622;2023-02-23T02:12:50;20.87;;;18.07;;
9657;SDS011;4867;48.112;11.622;2023-02-23T02:15:21;20.63;;;16.87;;
9657;SDS011;4867;48.112;11.622;2023-02-23T02:26:39;18.57;;;16.67;;
9657;SDS011;4867;48.112;11.622;2023-02-23T02:32:06;20.90;;;18.70;;
9657;SDS011;4867;48.112;11.622;2023-02-23T02:35:08;20.13;;;17.93;;
9657;SDS011;4867;48.112;11.622;2023-02-23T02:40:35;22.07;;;18.53;;
9657;SDS011;4867;48.112;11.622;2023-02-23T02:43:14;21.47;;;17.53;;
9657;SDS011;4867;48.112;11.622;2023-02-23T02:53:50;20.47;;;17.87;;
9657;SDS011;4867;48.112;11.622;2023-02-23T02:56:26;20.77;;;18.50;;
9657;SDS011;4867;48.112;11.622;2023-02-23T02:58:53;22.40;;;18.73;;
9657;SDS011;4867;48.112;11.622;2023-02-23T03:01:21;23.27;;;18.57;;
9657;SDS011;4867;48.112;11.622;2023-02-23T03:04:21;20.77;;;18.57;;
9657;SDS011;4867;48.112;11.622;2023-02-23T03:07:11;19.80;;;17.73;;
9657;SDS011;4867;48.112;11.622;2023-02-23T03:13:30;22.93;;;18.97;;
9657;SDS011;4867;48.112;11.622;2023-02-23T03:16:28;21.30;;;19.00;;
9657;SDS011;4867;48.112;11.622;2023-02-23T03:19:33;24.40;;;19.47;;
9657;SDS011;4867;48.112;11.622;2023-02-23T03:28:29;23.37;;;20.03;;
9657;SDS011;4867;48.112;11.622;2023-02-23T03:31:22;22.83;;;18.30;;
9657;SDS011;4867;48.112;11.622;2023-02-23T03:34:27;21.30;;;19.00;;
9657;SDS011;4867;48.112;11.622;2023-02-23T03:37:38;22.73;;;19.67;;
9657;SDS011;4867;48.112;11.622;2023-02-23T03:40:41;24.03;;;19.83;;
9657;SDS011;4867;48.112;11.622;2023-02-23T03:43:32;22.77;;;19.50;;
9657;SDS011;4867;48.112;11.622;2023-02-23T03:46:22;21.63;;;19.33;;
9657;SDS011;4867;48.112;11.622;2023-02-23T03:49:11;21.17;;;18.80;;
9657;SDS011;4867;48.112;11.622;2023-02-23T03:52:03;22.43;;;18.40;;
9657;SDS011;4867;48.112;11.622;2023-02-23T03:54:58;22.00;;;19.07;;
9657;SDS011;4867;48.112;11.622;2023-02-23T03:57:48;22.57;;;18.77;;
9657;SDS011;4867;48.112;11.622;2023-02-23T04:00:42;19.73;;;17.63;;
9657;SDS011;4867;48.112;11.622;2023-02-23T04:03:33;21.03;;;17.67;;
9657;SDS011;4867;48.112;11.622;2023-02-23T04:06:23;21.87;;;17.43;;
9657;SDS011;4867;48.112;11.622;2023-02-23T04:09:12;20.97;;;18.30;;
9657;SDS011;4867;48.112;11.622;2023-02-23T04:14:46;22.07;;;18.37;;
9657;SDS011;4867;48.112;11.622;2023-02-23T04:17:19;22.30;;;18.30;;
9657;SDS011;4867;48.112;11.622;2023-02-23T04:19:51;20.07;;;16.40;;
9657;SDS011;4867;48.112;11.622;2023-02-23T04:22:20;20.17;;;17.97;;
9657;SDS011;4867;48.112;11.622;2023-02-23T04:24:48;19.37;;;17.37;;
9657;SDS011;4867;48.112;11.622;2023-02-23T04:27:16;19.93;;;16.20;;
9657;SDS011;4867;48.112;11.622;2023-02-23T04:29:44;19.43;;;17.30;;
9657;SDS011;4867;48.112;11.622;2023-02-23T04:32:11;21.27;;;17.67;;
9657;SDS011;4867;48.112;11.622;2023-02-23T04:34:41;20.50;;;16.80;;
9657;SDS011;4867;48.112;11.622;2023-02-23T04:37:09;22.60;;;17.13;;
9657;SDS011;4867;48.112;11.622;2023-02-23T04:39:36;18.73;;;16.53;;
9657;SDS011;4867;48.112;11.622;2023-02-23T04:42:04;19.87;;;17.10;;
9657;SDS011;4867;48.112;11.622;2023-02-23T04:44:31;22.97;;;17.53;;
9657;SDS011;4867;48.112;11.622;2023-02-23T04:46:58;22.90;;;18.30;;
9657;SDS011;4867;48.112;11.622;2023-02-23T04:49:25;21.33;;;16.90;;
9657;SDS011;4867;48.112;11.622;2023-02-23T04:51:53;19.70;;;17.00;;
9657;SDS011;4867;48.112;11.622;2023-02-23T04:54:20;22.07;;;17.70;;
9657;SDS011;4867;48.112;11.622;2023-02-23T04:56:47;23.17;;;18.57;;
9657;SDS011;4867;48.112;11.622;2023-02-23T04:59:14;20.40;;;18.20;;
9657;SDS011;4867;48.112;11.622;2023-02-23T05:01:42;20.53;;;18.33;;
9657;SDS011;4867;48.112;11.622;2023-02-23T05:04:09;19.53;;;17.40;;
9657;SDS011;4867;48.112;11.622;2023-02-23T05:06:36;19.80;;;17.70;;
9657;SDS011;4867;48.112;11.622;2023-02-23T05:09:04;18.03;;;15.93;;
9657;SDS011;4867;48.112;11.622;2023-02-23T05:11:32;23.10;;;17.60;;
9657;SDS011;4867;48.112;11.622;2023-02-23T05:13:59;23.43;;;20.10;;
9657;SDS011;4867;48.112;11.622;2023-02-23T05:16:26;22.57;;;19.40;;
9657;SDS011;4867;48.112;11.622;2023-02-23T05:18:54;21.57;;;19.00;;
9657;SDS011;4867;48.112;11.622;2023-02-23T05:21:21;24.30;;;19.83;;
9657;SDS011;4867;48.112;11.622;2023-02-23T05:23:49;24.47;;;19.40;;
9657;SDS011;4867;48.112;11.622;2023-02-23T05:26:16;23.40;;;17.67;;
9657;SDS011;4867;48.112;11.622;2023-02-23T05:28:44;23.20;;;19.03;;
9657;SDS011;4867;48.112;11.622;2023-02-23T05:31:11;24.43;;;19.43;;
9657;SDS011;4867;48.112;11.622;2023-02-23T05:33:38;25.70;;;19.13;;
9657;SDS011;4867;48.112;11.622;2023-02-23T05:36:12;22.03;;;18.03;;
9657;SDS011;4867;48.112;11.622;2023-02-23T05:38:43;21.37;;;17.90;;
9657;SDS011;4867;48.112;11.622;2023-02-23T05:41:12;21.27;;;18.67;;
9657;SDS011;4867;48.112;11.622;2023-02-23T05:43:45;20.80;;;18.60;;
9657;SDS011;4867;48.112;11.622;2023-02-23T05:46:14;22.57;;;16.93;;
9657;SDS011;4867;48.112;11.622;2023-02-23T05:48:43;19.83;;;17.73;;
9657;SDS011;4867;48.112;11.622;2023-02-23T05:51:11;24.93;;;18.40;;
9657;SDS011;4867;48.112;11.622;2023-02-23T05:53:40;22.73;;;19.03;;
9657;SDS011;4867;48.112;11.622;2023-02-23T05:56:09;24.20;;;19.37;;
9657;SDS011;4867;48.112;11.622;2023-02-23T05:58:39;23.60;;;18.63;;
9657;SDS011;4867;48.112;11.622;2023-02-23T06:01:06;22.33;;;19.03;;
9657;SDS011;4867;48.112;11.622;2023-02-23T06:03:33;22.67;;;18.17;;
9657;SDS011;4867;48.112;11.622;2023-02-23T06:06:01;20.73;;;16.93;;
9657;SDS011;4867;48.112;11.622;2023-02-23T06:08:28;21.87;;;18.33;;
9657;SDS011;4867;48.112;11.622;2023-02-23T06:10:55;22.20;;;18.37;;
9657;SDS011;4867;48.112;11.622;2023-02-23T06:13:22;22.90;;;19.17;;
9657;SDS011;4867;48.112;11.622;2023-02-23T06:15:50;20.57;;;17.43;;
9657;SDS011;4867;48.112;11.622;2023-02-23T06:18:17;20.63;;;17.90;;
9657;SDS011;4867;48.112;11.622;2023-02-23T06:20:44;22.40;;;17.70;;
9657;SDS011;4867;48.112;11.622;2023-02-23T06:23:11;23.23;;;18.13;;
9657;SDS011;4867;48.112;11.622;2023-02-23T06:25:41;22.20;;;17.83;;
9657;SDS011;4867;48.112;11.622;2023-02-23T06:28:09;19.90;;;17.47;;
9657;SDS011;4867;48.112;11.622;2023-02-23T06:30:37;21.13;;;16.97;;
9657;SDS011;4867;48.112;11.622;2023-02-23T06:33:05;21.63;;;17.90;;
9657;SDS011;4867;48.112;11.622;2023-02-23T06:35:33;23.13;;;17.93;;
9657;SDS011;4867;48.112;11.622;2023-02-23T06:38:01;25.13;;;18.30;;
9657;SDS011;4867;48.112;11.622;2023-02-23T06:40:30;22.63;;;18.13;;
9657;SDS011;4867;48.112;11.622;2023-02-23T06:42:57;23.37;;;18.40;;
9657;SDS011;4867;48.112;11.622;2023-02-23T06:45:25;22.40;;;18.33;;
9657;SDS011;4867;48.112;11.622;2023-02-23T06:47:52;21.27;;;18.50;;
9657;SDS011;4867;48.112;11.622;2023-02-23T06:50:20;21.43;;;17.40;;
9657;SDS011;4867;48.112;11.622;2023-02-23T06:52:47;22.30;;;17.73;;
9657;SDS011;4867;48.112;11.622;2023-02-23T06:55:15;21.77;;;17.70;;
9657;SDS011;4867;48.112;11.622;2023-02-23T06:57:42;22.57;;;17.77;;
9657;SDS011;4867;48.112;11.622;2023-02-23T07:00:10;22.80;;;17.83;;
9657;SDS011;4867;48.112;11.622;2023-02-23T07:02:40;19.23;;;16.83;;
9657;SDS011;4867;48.112;11.622;2023-02-23T07:05:07;21.67;;;17.40;;
9657;SDS011;4867;48.112;11.622;2023-02-23T07:07:35;20.97;;;16.50;;
9657;SDS011;4867;48.112;11.622;2023-02-23T07:10:03;25.53;;;17.30;;
9657;SDS011;4867;48.112;11.622;2023-02-23T07:12:31;33.23;;;17.67;;
9657;SDS011;4867;48.112;11.622;2023-02-23T07:14:58;30.93;;;18.53;;
9657;SDS011;4867;48.112;11.622;2023-02-23T07:17:26;26.47;;;17.93;;
9657;SDS011;4867;48.112;11.622;2023-02-23T07:19:53;30.17;;;17.73;;
9657;SDS011;4867;48.112;11.622;2023-02-23T07:22:20;26.93;;;17.97;;
9657;SDS011;4867;48.112;11.622;2023-02-23T07:24:48;25.33;;;17.03;;
9657;SDS011;4867;48.112;11.622;2023-02-23T07:27:15;20.30;;;16.10;;
9657;SDS011;4867;48.112;11.622;2023-02-23T07:29:42;21.20;;;16.33;;
9657;SDS011;4867;48.112;11.622;2023-02-23T07:32:09;21.93;;;15.30;;
9657;SDS011;4867;48.112;11.622;2023-02-23T07:34:37;19.53;;;15.90;;
9657;SDS011;4867;48.112;11.622;2023-02-23T07:37:05;23.43;;;16.37;;
9657;SDS011;4867;48.112;11.622;2023-02-23T07:39:32;18.13;;;15.83;;
9657;SDS011;4867;48.112;11.622;2023-02-23T07:41:59;20.17;;;15.77;;
9657;SDS011;4867;48.112;11.622;2023-02-23T07:44:28;20.67;;;15.80;;
9657;SDS011;4867;48.112;11.622;2023-02-23T07:46:56;18.90;;;16.83;;
9657;SDS011;4867;48.112;11.622;2023-02-23T07:49:23;18.97;;;16.27;;
9657;SDS011;4867;48.112;11.622;2023-02-23T07:51:51;21.37;;;15.77;;
9657;SDS011;4867;48.112;11.622;2023-02-23T07:54:18;23.83;;;15.73;;
9657;SDS011;4867;48.112;11.622;2023-02-23T07:56:45;23.00;;;15.73;;
9657;SDS011;4867;48.112;11.622;2023-02-23T07:59:12;19.67;;;15.90;;
9657;SDS011;4867;48.112;11.622;2023-02-23T08:01:40;24.10;;;16.47;;
9657;SDS011;4867;48.112;11.622;2023-02-23T08:04:07;22.33;;;15.47;;
9657;SDS011;4867;48.112;11.622;2023-02-23T08:06:34;19.37;;;15.23;;
9657;SDS011;4867;48.112;11.622;2023-02-23T08:09:02;19.77;;;15.10;;
9657;SDS011;4867;48.112;11.622;2023-02-23T08:11:30;24.57;;;15.83;;
9657;SDS011;4867;48.112;11.622;2023-02-23T08:13:57;20.73;;;15.83;;
9657;SDS011;4867;48.112;11.622;2023-02-23T08:16:26;22.03;;;15.17;;
9657;SDS011;4867;48.112;11.622;2023-02-23T08:18:55;17.90;;;15.80;;
9657;SDS011;4867;48.112;11.622;2023-02-23T08:21:24;18.87;;;15.70;;
9657;SDS011;4867;48.112;11.622;2023-02-23T08:23:52;17.17;;;14.70;;
9657;SDS011;4867;48.112;11.622;2023-02-23T08:26:19;17.43;;;14.67;;
9657;SDS011;4867;48.112;11.622;2023-02-23T08:28:47;21.93;;;16.40;;
9657;SDS011;4867;48.112;11.622;2023-02-23T08:31:14;21.63;;;16.13;;
9657;SDS011;4867;48.112;11.622;2023-02-23T08:33:44;18.73;;;15.70;;
9657;SDS011;4867;48.112;11.622;2023-02-23T08:36:11;18.37;;;16.37;;
9657;SDS011;4867;48.112;11.622;2023-02-23T08:38:39;20.70;;;17.23;;
9657;SDS011;4867;48.112;11.622;2023-02-23T08:41:06;20.50;;;15.97;;
9657;SDS011;4867;48.112;11.622;2023-02-23T08:43:33;19.10;;;16.43;;
9657;SDS011;4867;48.112;11.622;2023-02-23T08:46:00;17.73;;;15.80;;
9657;SDS011;4867;48.112;11.622;2023-02-23T08:48:28;21.27;;;16.60;;
9657;SDS011;4867;48.112;11.622;2023-02-23T08:50:55;19.77;;;16.87;;
9657;SDS011;4867;48.112;11.622;2023-02-23T08:53:24;19.17;;;16.07;;
9657;SDS011;4867;48.112;11.622;2023-02-23T08:55:56;18.83;;;16.37;;
9657;SDS011;4867;48.112;11.622;2023-02-23T08:58:25;20.90;;;16.73;;
9657;SDS011;4867;48.112;11.622;2023-02-23T09:00:53;18.97;;;15.53;;
9657;SDS011;4867;48.112;11.622;2023-02-23T09:03:20;22.50;;;16.00;;
9657;SDS011;4867;48.112;11.622;2023-02-23T09:05:48;19.67;;;15.63;;
9657;SDS011;4867;48.112;11.622;2023-02-23T09:08:16;22.23;;;16.27;;
9657;SDS011;4867;48.112;11.622;2023-02-23T09:10:43;17.83;;;15.93;;
9657;SDS011;4867;48.112;11.622;2023-02-23T09:13:10;19.80;;;15.67;;
9657;SDS011;4867;48.112;11.622;2023-02-23T09:15:38;21.70;;;15.80;;
9657;SDS011;4867;48.112;11.622;2023-02-23T09:18:07;18.77;;;15.07;;
9657;SDS011;4867;48.112;11.622;2023-02-23T09:20:37;17.00;;;15.27;;
9657;SDS011;4867;48.112;11.622;2023-02-23T09:23:07;18.70;;;14.43;;
9657;SDS011;4867;48.112;11.622;2023-02-23T09:25:38;19.00;;;15.27;;
9657;SDS011;4867;48.112;11.622;2023-02-23T09:28:12;18.47;;;14.60;;
9657;SDS011;4867;48.112;11.622;2023-02-23T09:30:41;21.37;;;14.30;;
9657;SDS011;4867;48.112;11.622;2023-02-23T09:33:10;16.17;;;13.97;;
9657;SDS011;4867;48.112;11.622;2023-02-23T09:35:38;16.43;;;14.57;;
9657;SDS011;4867;48.112;11.622;2023-02-23T09:38:06;17.40;;;14.07;;
9657;SDS011;4867;48.112;11.622;2023-02-23T09:40:47;16.13;;;14.27;;
9657;SDS011;4867;48.112;11.622;2023-02-23T09:43:25;14.47;;;12.30;;
9657;SDS011;4867;48.112;11.622;2023-02-23T09:46:27;17.37;;;13.83;;
9657;SDS011;4867;48.112;11.622;2023-02-23T09:49:05;18.93;;;14.27;;
9657;SDS011;4867;48.112;11.622;2023-02-23T09:51:43;15.43;;;13.70;;
9657;SDS011;4867;48.112;11.622;2023-02-23T09:54:14;15.03;;;13.43;;
9657;SDS011;4867;48.112;11.622;2023-02-23T09:56:47;15.13;;;13.13;;
9657;SDS011;4867;48.112;11.622;2023-02-23T09:59:17;16.80;;;12.50;;
9657;SDS011;4867;48.112;11.622;2023-02-23T10:15:38;11.53;;;9.87;;
9657;SDS011;4867;48.112;11.622;2023-02-23T10:18:22;11.10;;;9.90;;
9657;SDS011;4867;48.112;11.622;2023-02-23T10:21:47;9.57;;;8.50;;
9657;SDS011;4867;48.112;11.622;2023-02-23T10:26:42;10.53;;;9.43;;
9657;SDS011;4867;48.112;11.622;2023-02-23T10:29:37;11.23;;;9.80;;
9657;SDS011;4867;48.112;11.622;2023-02-23T10:32:05;10.73;;;9.63;;
9657;SDS011;4867;48.112;11.622;2023-02-23T10:35:04;11.07;;;9.47;;
9657;SDS011;4867;48.112;11.622;2023-02-23T10:37:46;13.83;;;9.67;;
9657;SDS011;4867;48.112;11.622;2023-02-23T10:40:20;11.67;;;9.20;;
9657;SDS011;4867;48.112;11.622;2023-02-23T10:42:53;11.50;;;10.03;;
9657;SDS011;4867;48.112;11.622;2023-02-23T10:45:23;10.77;;;9.73;;
9657;SDS011;4867;48.112;11.622;2023-02-23T10:48:03;10.93;;;9.73;;
9657;SDS011;4867;48.112;11.622;2023-02-23T10:50:35;11.07;;;9.97;;
9657;SDS011;4867;48.112;11.622;2023-02-23T10:56:00;10.20;;;8.57;;
9657;SDS011;4867;48.112;11.622;2023-02-23T11:01:37;10.47;;;8.63;;
9657;SDS011;4867;48.112;11.622;2023-02-23T11:04:30;10.60;;;9.40;;
9657;SDS011;4867;48.112;11.622;2023-02-23T11:07:17;9.93;;;8.93;;
9657;SDS011;4867;48.112;11.622;2023-02-23T11:09:48;10.40;;;8.90;;
9657;SDS011;4867;48.112;11.622;2023-02-23T11:12:18;10.43;;;9.00;;
9657;SDS011;4867;48.112;11.622;2023-02-23T11:14:51;10.87;;;8.33;;
9657;SDS011;4867;48.112;11.622;2023-02-23T11:17:24;13.30;;;8.77;;
9657;SDS011;4867;48.112;11.622;2023-02-23T11:19:56;9.57;;;8.67;;
9657;SDS011;4867;48.112;11.622;2023-02-23T11:22:25;12.00;;;9.40;;
9657;SDS011;4867;48.112;11.622;2023-02-23T11:24:57;10.80;;;8.73;;
9657;SDS011;4867;48.112;11.622;2023-02-23T11:27:25;9.70;;;8.70;;
9657;SDS011;4867;48.112;11.622;2023-02-23T11:29:54;12.77;;;8.90;;
9657;SDS011;4867;48.112;11.622;2023-02-23T11:32:28;9.40;;;8.10;;
9657;SDS011;4867;48.112;11.622;2023-02-23T11:37:48;10.63;;;8.70;;
9657;SDS011;4867;48.112;11.622;2023-02-23T11:40:23;10.53;;;8.30;;
9657;SDS011;4867;48.112;11.622;2023-02-23T11:43:13;9.03;;;7.93;;
9657;SDS011;4867;48.112;11.622;2023-02-23T11:45:46;10.00;;;7.83;;
9657;SDS011;4867;48.112;11.622;2023-02-23T11:48:37;9.17;;;8.20;;
9657;SDS011;4867;48.112;11.622;2023-02-23T11:51:31;7.97;;;7.20;;
9657;SDS011;4867;48.112;11.622;2023-02-23T11:54:01;8.47;;;6.43;;
9657;SDS011;4867;48.112;11.622;2023-02-23T11:56:31;8.30;;;6.43;;
9657;SDS011;4867;48.112;11.622;2023-02-23T11:59:05;9.83;;;6.40;;
9657;SDS011;4867;48.112;11.622;2023-02-23T12:01:48;9.17;;;6.13;;
9657;SDS011;4867;48.112;11.622;2023-02-23T12:07:18;8.03;;;6.90;;
9657;SDS011;4867;48.112;11.622;2023-02-23T12:09:46;7.10;;;6.20;;
9657;SDS011;4867;48.112;11.622;2023-02-23T12:12:19;7.67;;;6.53;;
9657;SDS011;4867;48.112;11.622;2023-02-23T12:14:50;7.77;;;6.60;;
9657;SDS011;4867;48.112;11.622;2023-02-23T12:17:28;7.37;;;6.57;;
9657;SDS011;4867;48.112;11.622;2023-02-23T12:22:49;6.63;;;6.03;;
9657;SDS011;4867;48.112;11.622;2023-02-23T12:25:22;10.80;;;6.40;;
9657;SDS011;4867;48.112;11.622;2023-02-23T12:34:07;9.23;;;6.87;;
9657;SDS011;4867;48.112;11.622;2023-02-23T12:36:52;8.77;;;7.07;;
9657;SDS011;4867;48.112;11.622;2023-02-23T12:39:44;8.73;;;7.30;;
9657;SDS011;4867;48.112;11.622;2023-02-23T12:44:53;11.30;;;8.37;;
9657;SDS011;4867;48.112;11.622;2023-02-23T12:47:41;10.23;;;8.13;;
9657;SDS011;4867;48.112;11.622;2023-02-23T12:50:32;8.77;;;7.87;;
9657;SDS011;4867;48.112;11.622;2023-02-23T12:56:00;7.33;;;6.63;;
9657;SDS011;4867;48.112;11.622;2023-02-23T12:58:49;7.73;;;6.93;;
9657;SDS011;4867;48.112;11.622;2023-02-23T13:01:43;9.27;;;8.13;;
9657;SDS011;4867;48.112;11.622;2023-02-23T13:12:21;8.60;;;7.70;;
9657;SDS011;4867;48.112;11.622;2023-02-23T13:20:42;7.07;;;6.37;;
9657;SDS011;4867;48.112;11.622;2023-02-23T13:23:25;8.40;;;6.53;;
9657;SDS011;4867;48.112;11.622;2023-02-23T13:26:03;6.97;;;5.80;;
9657;SDS011;4867;48.112;11.622;2023-02-23T13:28:47;6.83;;;6.07;;
9657;SDS011;4867;48.112;11.622;2023-02-23T13:31:35;7.60;;;5.87;;
9657;SDS011;4867;48.112;11.622;2023-02-23T13:34:06;7.43;;;6.23;;
9657;SDS011;4867;48.112;11.622;2023-02-23T13:36:42;10.13;;;6.90;;
9657;SDS011;4867;48.112;11.622;2023-02-23T13:42:09;9.77;;;6.20;;
9657;SDS011;4867;48.112;11.622;2023-02-23T13:44:45;6.27;;;5.67;;
9657;SDS011;4867;48.112;11.622;2023-02-23T13:53:26;6.60;;;5.70;;
9657;SDS011;4867;48.112;11.622;2023-02-23T13:56:01;6.50;;;5.37;;
9657;SDS011;4867;48.112;11.622;2023-02-23T13:58:35;5.93;;;5.33;;
9657;SDS011;4867;48.112;11.622;2023-02-23T14:03:44;6.57;;;5.37;;
9657;SDS011;4867;48.112;11.622;2023-02-23T14:06:18;7.20;;;5.17;;
9657;SDS011;4867;48.112;11.622;2023-02-23T14:08:59;5.87;;;4.33;;
9657;SDS011;4867;48.112;11.622;2023-02-23T14:11:36;6.40;;;4.70;;
9657;SDS011;4867;48.112;11.622;2023-02-23T14:14:59;5.80;;;5.13;;
9657;SDS011;4867;48.112;11.622;2023-02-23T14:19:40;6.03;;;4.97;;
9657;SDS011;4867;48.112;11.622;2023-02-23T14:22:26;5.30;;;4.60;;
9657;SDS011;4867;48.112;11.622;2023-02-23T14:41:23;4.93;;;4.37;;
9657;SDS011;4867;48.112;11.622;2023-02-23T14:44:07;7.93;;;4.07;;
9657;SDS011;4867;48.112;11.622;2023-02-23T14:49:56;5.87;;;3.80;;
9657;SDS011;4867;48.112;11.622;2023-02-23T14:52:26;5.93;;;3.77;;
9657;SDS011;4867;48.112;11.622;2023-02-23T14:57:38;4.57;;;3.33;;
9657;SDS011;4867;48.112;11.622;2023-02-23T15:02:59;4.40;;;3.80;;
9657;SDS011;4867;48.112;11.622;2023-02-23T15:05:27;3.40;;;3.10;;
9657;SDS011;4867;48.112;11.622;2023-02-23T15:07:56;3.70;;;3.40;;
9657;SDS011;4867;48.112;11.622;2023-02-23T15:10:33;6.23;;;4.03;;
9657;SDS011;4867;48.112;11.622;2023-02-23T15:13:16;5.30;;;3.70;;
9657;SDS011;4867;48.112;11.622;2023-02-23T15:15:55;3.97;;;3.10;;
9657;SDS011;4867;48.112;11.622;2023-02-23T15:18:28;4.60;;;2.93;;
9657;SDS011;4867;48.112;11.622;2023-02-23T15:21:03;4.77;;;3.07;;
9657;SDS011;4867;48.112;11.622;2023-02-23T15:23:35;6.50;;;2.93;;
9657;SDS011;4867;48.112;11.622;2023-02-23T15:32:12;3.47;;;3.17;;
9657;SDS011;4867;48.112;11.622;2023-02-23T15:34:44;6.27;;;3.50;;
9657;SDS011;4867;48.112;11.622;2023-02-23T15:37:14;3.97;;;3.13;;
9657;SDS011;4867;48.112;11.622;2023-02-23T15:40:00;6.63;;;3.20;;
9657;SDS011;4867;48.112;11.622;2023-02-23T15:42:35;3.57;;;3.27;;
9657;SDS011;4867;48.112;11.622;2023-02-23T15:45:30;5.37;;;3.60;;
9657;SDS011;4867;48.112;11.622;2023-02-23T15:48:02;4.27;;;3.50;;
9657;SDS011;4867;48.112;11.622;2023-02-23T15:50:33;5.67;;;3.10;;
9657;SDS011;4867;48.112;11.622;2023-02-23T15:53:07;4.60;;;3.80;;
9657;SDS011;4867;48.112;11.622;2023-02-23T15:55:45;5.07;;;3.13;;
9657;SDS011;4867;48.112;11.622;2023-02-23T15:58:18;4.60;;;3.60;;
9657;SDS011;4867;48.112;11.622;2023-02-23T16:00:58;4.23;;;3.40;;
9657;SDS011;4867;48.112;11.622;2023-02-23T16:03:33;3.40;;;3.10;;
9657;SDS011;4867;48.112;11.622;2023-02-23T16:06:03;3.73;;;3.10;;
9657;SDS011;4867;48.112;11.622;2023-02-23T16:08:33;3.10;;;2.70;;
9657;SDS011;4867;48.112;11.622;2023-02-23T16:11:09;5.57;;;3.20;;
9657;SDS011;4867;48.112;11.622;2023-02-23T16:13:44;5.53;;;3.37;;
9657;SDS011;4867;48.112;11.622;2023-02-23T16:16:13;4.80;;;3.30;;
9657;SDS011;4867;48.112;11.622;2023-02-23T16:18:46;5.57;;;3.57;;
9657;SDS011;4867;48.112;11.622;2023-02-23T16:21:20;3.87;;;3.10;;
9657;SDS011;4867;48.112;11.622;2023-02-23T16:23:51;5.70;;;3.43;;
9657;SDS011;4867;48.112;11.622;2023-02-23T16:29:19;4.10;;;3.00;;
9657;SDS011;4867;48.112;11.622;2023-02-23T16:32:14;25.30;;;20.97;;
9657;SDS011;4867;48.112;11.622;2023-02-23T16:34:54;7.17;;;3.50;;
9657;SDS011;4867;48.112;11.622;2023-02-23T16:37:25;7.50;;;3.13;;
9657;SDS011;4867;48.112;11.622;2023-02-23T16:39:53;4.57;;;3.50;;
9657;SDS011;4867;48.112;11.622;2023-02-23T16:42:26;3.93;;;2.97;;
9657;SDS011;4867;48.112;11.622;2023-02-23T16:44:58;6.17;;;3.50;;
9657;SDS011;4867;48.112;11.622;2023-02-23T16:48:00;4.50;;;3.23;;
9657;SDS011;4867;48.112;11.622;2023-02-23T16:50:22;4.23;;;3.33;;
9657;SDS011;4867;48.112;11.622;2023-02-23T16:52:51;5.33;;;3.67;;
9657;SDS011;4867;48.112;11.622;2023-02-23T16:55:20;5.73;;;3.57;;
9657;SDS011;4867;48.112;11.622;2023-02-23T16:57:55;8.10;;;4.47;;
9657;SDS011;4867;48.112;11.622;2023-02-23T17:00:26;6.40;;;4.07;;
9657;SDS011;4867;48.112;11.622;2023-02-23T17:02:56;8.13;;;4.17;;
9657;SDS011;4867;48.112;11.622;2023-02-23T17:05:28;7.30;;;4.40;;
9657;SDS011;4867;48.112;11.622;2023-02-23T17:07:58;6.10;;;4.20;;
9657;SDS011;4867;48.112;11.622;2023-02-23T17:10:32;6.53;;;4.33;;
9657;SDS011;4867;48.112;11.622;2023-02-23T17:13:04;6.60;;;4.10;;
9657;SDS011;4867;48.112;11.622;2023-02-23T17:15:53;9.67;;;5.90;;
9657;SDS011;4867;48.112;11.622;2023-02-23T17:18:22;7.87;;;5.50;;
9657;SDS011;4867;48.112;11.622;2023-02-23T17:20:57;10.17;;;5.50;;
9657;SDS011;4867;48.112;11.622;2023-02-23T17:23:27;11.67;;;4.60;;
9657;SDS011;4867;48.112;11.622;2023-02-23T17:26:04;10.77;;;4.60;;
9657;SDS011;4867;48.112;11.622;2023-02-23T17:28:33;9.13;;;4.77;;
9657;SDS011;4867;48.112;11.622;2023-02-23T17:31:00;9.77;;;5.97;;
9657;SDS011;4867;48.112;11.622;2023-02-23T17:33:28;8.03;;;4.63;;
9657;SDS011;4867;48.112;11.622;2023-02-23T17:36:00;13.60;;;5.10;;
9657;SDS011;4867;48.112;11.622;2023-02-23T17:38:29;9.10;;;4.87;;
9657;SDS011;4867;48.112;11.622;2023-02-23T17:41:03;7.80;;;4.77;;
9657;SDS011;4867;48.112;11.622;2023-02-23T17:43:35;5.67;;;4.50;;